Nearby METAR Reports

KLWM - Lawrence,MA, USA
Distance from station: NE 12mi, 19km
Updated: Sun, 25-Aug-2019 12:54am EDT
Clear
Clear
 Wind from calm
Wind: Calm
Temperature: 59°F , 15°C
Dew Point: 55°F , 13°C
Humidity: 88%
Barometer: 30.33 inHg , 1027.1 hPa
Clouds: Clear
Visibility: 10 miles , 16 km
2019/08/25 04:54 KLWM 250454Z AUTO 00000KT 10SM CLR 15/13 A3033 RMK AO2 SLP269 T01500133 402280122
KBED - Bedford,MA, USA
Distance from station: SSE 12mi, 19km
Updated: Sun, 25-Aug-2019 12:56am EDT
Few Clouds
Few Clouds
 Wind from calm
Wind: Calm
Temperature: 57°F , 14°C
Dew Point: 52°F , 11°C
Humidity: 82%
Barometer: 30.30 inHg , 1026.1 hPa
Clouds: Few Clouds
Visibility: 10 miles , 16 km
Cloud details: Few Clouds 5500 ft
2019/08/25 04:56 KBED 250456Z AUTO 00000KT 10SM FEW055 14/11 A3030 RMK AO2 SLP270 T01440111

Metar display script from Saratoga-Weather.org